createdAt,value
2022-12-29T00:02:57.532Z,5.15
2022-12-29T00:06:39.324Z,6.07
2022-12-29T00:10:22.231Z,5.32
2022-12-29T00:14:26.010Z,5.53
2022-12-29T00:18:28.300Z,5.80
2022-12-29T00:22:33.019Z,5.78
2022-12-29T00:26:35.222Z,4.15
2022-12-29T00:30:55.805Z,4.90
2022-12-29T00:34:55.804Z,3.67
2022-12-29T00:38:57.486Z,3.58
2022-12-29T00:42:57.594Z,3.40
2022-12-29T00:46:40.208Z,3.75
2022-12-29T00:50:41.999Z,3.92
2022-12-29T00:54:23.734Z,3.83
2022-12-29T00:58:05.444Z,3.75
2022-12-29T01:01:47.641Z,4.25
2022-12-29T01:05:29.404Z,4.03
2022-12-29T01:10:07.509Z,4.00
2022-12-29T01:13:49.206Z,4.13
2022-12-29T01:17:30.896Z,4.28
2022-12-29T01:21:51.291Z,3.92
2022-12-29T01:25:33.024Z,3.97
2022-12-29T01:29:15.688Z,5.05
2022-12-29T01:32:57.445Z,3.42
2022-12-29T01:36:39.207Z,4.72
2022-12-29T01:41:17.456Z,4.88
2022-12-29T01:45:11.295Z,4.47
2022-12-29T01:49:23.388Z,4.03
2022-12-29T01:53:17.360Z,4.13
2022-12-29T01:57:02.537Z,3.85
2022-12-29T02:01:04.414Z,4.45
2022-12-29T02:04:46.482Z,5.22
2022-12-29T02:09:24.670Z,4.65
2022-12-29T02:13:06.408Z,4.40
2022-12-29T02:17:16.971Z,4.88
2022-12-29T02:21:20.402Z,3.88
2022-12-29T02:25:08.028Z,4.13
2022-12-29T02:29:29.444Z,4.07
2022-12-29T02:33:23.583Z,4.72
2022-12-29T02:37:28.064Z,4.25
2022-12-29T02:41:33.827Z,3.72
2022-12-29T02:45:32.716Z,3.78
2022-12-29T02:49:49.586Z,4.95
2022-12-29T02:53:51.888Z,4.72
2022-12-29T02:57:35.269Z,4.03
2022-12-29T03:02:10.111Z,4.40
2022-12-29T03:09:57.827Z,4.13
2022-12-29T03:13:57.944Z,3.95
2022-12-29T03:17:47.641Z,3.40
2022-12-29T03:22:19.242Z,3.38
2022-12-29T03:26:02.666Z,3.72
2022-12-29T03:29:48.107Z,2.47
2022-12-29T03:33:30.010Z,3.47
2022-12-29T03:37:14.178Z,2.28
2022-12-29T03:40:59.288Z,2.05
2022-12-29T03:44:42.566Z,2.40
2022-12-29T03:48:25.441Z,1.05
2022-12-29T03:52:07.514Z,1.40
2022-12-29T03:55:49.202Z,1.00
2022-12-29T03:59:31.104Z,1.25
2022-12-29T04:03:12.947Z,1.67
2022-12-29T04:06:54.695Z,1.95
2022-12-29T04:10:38.629Z,1.83
2022-12-29T04:14:20.462Z,2.47
2022-12-29T04:18:02.160Z,1.90
2022-12-29T04:21:43.840Z,2.22
2022-12-29T04:25:25.535Z,1.60
2022-12-29T04:29:08.351Z,2.05
2022-12-29T04:32:50.069Z,2.13
2022-12-29T04:36:31.765Z,2.53
2022-12-29T04:40:17.722Z,1.80
2022-12-29T04:43:59.412Z,2.72
2022-12-29T04:47:41.109Z,1.63
2022-12-29T04:51:23.999Z,1.60
2022-12-29T04:55:06.157Z,1.70
2022-12-29T04:59:44.889Z,1.55
2022-12-29T05:03:26.663Z,1.88
2022-12-29T05:07:08.653Z,2.15
2022-12-29T05:10:54.816Z,2.83
2022-12-29T05:14:36.579Z,1.95
2022-12-29T05:19:14.757Z,1.98
2022-12-29T05:22:56.459Z,1.75
2022-12-29T05:26:38.187Z,1.95
2022-12-29T05:30:58.920Z,1.88
2022-12-29T05:34:40.758Z,2.10
2022-12-29T05:38:24.768Z,1.90
2022-12-29T05:42:06.481Z,1.33
2022-12-29T05:45:50.634Z,1.50
2022-12-29T05:49:51.324Z,1.25
2022-12-29T05:53:33.076Z,1.40
2022-12-29T05:57:15.325Z,1.00
2022-12-29T06:01:53.919Z,1.58
2022-12-29T06:05:35.822Z,1.08
2022-12-29T06:10:14.094Z,0.80
2022-12-29T06:13:55.818Z,1.00
2022-12-29T06:17:37.577Z,1.40
2022-12-29T06:21:40.538Z,1.13
2022-12-29T06:25:22.243Z,1.00
2022-12-29T06:29:05.161Z,1.52
2022-12-29T06:32:47.002Z,1.80
2022-12-29T06:36:28.719Z,1.02
2022-12-29T06:40:51.266Z,1.42
2022-12-29T06:44:32.965Z,1.58
2022-12-29T06:48:15.941Z,1.70
2022-12-29T06:52:01.612Z,1.08
2022-12-29T06:55:43.413Z,1.17
2022-12-29T06:59:45.209Z,1.20
2022-12-29T07:03:27.113Z,1.08
2022-12-29T07:07:08.883Z,1.50
2022-12-29T07:11:11.629Z,3.08
2022-12-29T07:14:53.327Z,1.88
2022-12-29T07:18:56.114Z,1.30
2022-12-29T07:22:37.849Z,1.33
2022-12-29T07:26:19.563Z,1.58
2022-12-29T07:30:01.482Z,1.80
2022-12-29T07:33:44.313Z,1.25
2022-12-29T07:37:26.029Z,1.63
2022-12-29T07:41:31.738Z,1.35
2022-12-29T07:45:13.478Z,1.52
2022-12-29T07:48:55.359Z,1.38
2022-12-29T07:52:37.051Z,1.30
2022-12-29T07:56:18.752Z,0.95
2022-12-29T08:00:01.798Z,0.88
2022-12-29T08:03:43.621Z,0.85
2022-12-29T08:07:25.373Z,0.65
2022-12-29T08:11:08.282Z,0.70
2022-12-29T08:14:49.976Z,0.50
2022-12-29T08:18:32.142Z,0.60
2022-12-29T08:22:15.147Z,0.98
2022-12-29T08:26:04.533Z,0.50
2022-12-29T08:30:06.667Z,1.00
2022-12-29T08:33:48.377Z,0.90
2022-12-29T08:37:31.359Z,1.05
2022-12-29T08:41:33.313Z,1.30
2022-12-29T08:45:15.223Z,0.70
2022-12-29T08:48:59.421Z,0.80
2022-12-29T08:52:41.100Z,1.27
2022-12-29T08:56:24.749Z,1.20
2022-12-29T09:00:18.254Z,0.90
2022-12-29T09:04:17.437Z,1.63
2022-12-29T09:07:59.773Z,1.02
2022-12-29T09:11:41.782Z,1.65
2022-12-29T09:15:23.490Z,1.13
2022-12-29T09:19:07.383Z,2.40
2022-12-29T09:22:49.304Z,1.63
2022-12-29T09:26:31.004Z,1.45
2022-12-29T09:30:31.787Z,1.60
2022-12-29T09:34:13.526Z,1.40
2022-12-29T09:37:55.526Z,1.38
2022-12-29T09:41:46.355Z,1.35
2022-12-29T09:45:35.101Z,1.30
2022-12-29T09:49:19.846Z,1.58
2022-12-29T09:53:06.749Z,1.67
2022-12-29T09:56:48.824Z,2.03
2022-12-29T10:00:54.747Z,1.95
2022-12-29T10:04:36.732Z,1.92
2022-12-29T10:09:14.600Z,1.88
2022-12-29T10:13:18.334Z,3.55
2022-12-29T10:17:11.364Z,1.88
2022-12-29T10:21:06.755Z,1.87
2022-12-29T10:24:48.592Z,2.80
2022-12-29T10:28:52.436Z,2.38
2022-12-29T10:33:01.370Z,2.58
2022-12-29T10:36:49.734Z,2.95
2022-12-29T10:40:33.932Z,2.63
2022-12-29T10:44:17.126Z,1.98
2022-12-29T10:48:11.986Z,2.42
2022-12-29T10:51:53.747Z,2.28
2022-12-29T10:55:36.948Z,1.70
2022-12-29T10:59:26.939Z,2.83
2022-12-29T11:03:46.016Z,2.40
2022-12-29T11:07:27.925Z,2.65
2022-12-29T11:11:11.698Z,2.33
2022-12-29T11:18:52.522Z,2.83
2022-12-29T11:22:34.964Z,3.08
2022-12-29T11:26:28.832Z,2.78
2022-12-29T11:30:28.317Z,2.83
2022-12-29T11:34:10.139Z,3.15
2022-12-29T11:37:56.787Z,3.17
2022-12-29T11:41:38.637Z,2.53
2022-12-29T11:45:21.540Z,2.90
2022-12-29T11:49:04.233Z,3.07
2022-12-29T11:52:45.930Z,2.80
2022-12-29T11:56:41.429Z,2.60
2022-12-29T12:00:27.106Z,2.58
2022-12-29T12:04:15.346Z,2.22
2022-12-29T12:08:20.983Z,2.40
2022-12-29T12:12:03.222Z,2.13
2022-12-29T12:15:56.134Z,2.28
2022-12-29T12:19:58.131Z,1.60
2022-12-29T12:23:47.191Z,1.58
2022-12-29T12:27:42.316Z,2.08
2022-12-29T12:31:53.088Z,2.33
2022-12-29T12:35:53.925Z,1.98
2022-12-29T12:39:43.069Z,1.88
2022-12-29T12:43:45.168Z,2.33
2022-12-29T12:47:29.944Z,1.58
2022-12-29T12:51:27.696Z,1.80
2022-12-29T12:55:22.779Z,1.50
2022-12-29T12:59:09.448Z,1.55
2022-12-29T13:03:17.269Z,1.73
2022-12-29T13:07:08.204Z,2.15
2022-12-29T13:10:54.795Z,2.35
2022-12-29T13:14:52.150Z,2.25
2022-12-29T13:18:38.816Z,2.13
2022-12-29T13:22:30.097Z,2.88
2022-12-29T13:26:23.718Z,2.70
2022-12-29T13:30:06.541Z,2.17
2022-12-29T13:33:54.388Z,2.75
2022-12-29T13:37:40.506Z,2.45
2022-12-29T13:41:26.993Z,1.90
2022-12-29T13:45:13.178Z,2.30
2022-12-29T13:49:13.687Z,2.03
2022-12-29T13:53:16.415Z,2.60
2022-12-29T13:57:38.497Z,2.85
2022-12-29T14:01:25.593Z,2.05
2022-12-29T14:05:28.309Z,2.85
2022-12-29T14:09:55.288Z,2.60
2022-12-29T14:13:40.028Z,1.98
2022-12-29T14:17:22.030Z,2.13
2022-12-29T14:21:30.873Z,1.92
2022-12-29T14:25:51.180Z,1.83
2022-12-29T14:29:52.830Z,2.17
2022-12-29T14:33:35.046Z,1.77
2022-12-29T14:37:36.055Z,5.05
2022-12-29T14:41:24.885Z,1.98
2022-12-29T14:45:30.347Z,1.85
2022-12-29T14:49:19.160Z,2.33
2022-12-29T14:53:04.461Z,1.60
2022-12-29T14:56:46.411Z,2.30
2022-12-29T15:00:35.376Z,1.85
2022-12-29T15:04:28.297Z,2.15
2022-12-29T15:08:11.884Z,2.58
2022-12-29T15:11:55.990Z,2.63
2022-12-29T15:15:38.986Z,3.67
2022-12-29T15:19:24.833Z,1.60
2022-12-29T15:23:15.698Z,1.80
2022-12-29T15:26:57.415Z,1.45
2022-12-29T15:31:23.563Z,2.25
2022-12-29T15:35:28.095Z,2.20
2022-12-29T15:39:41.785Z,2.55
2022-12-29T15:43:47.743Z,3.03
2022-12-29T15:47:30.614Z,4.72
2022-12-29T15:51:18.700Z,2.50
2022-12-29T15:55:00.805Z,2.67
2022-12-29T15:58:48.655Z,1.70
2022-12-29T16:02:30.575Z,1.85
2022-12-29T16:06:33.529Z,0.88
2022-12-29T16:10:37.927Z,0.90
2022-12-29T16:14:30.842Z,1.00
2022-12-29T16:18:28.030Z,0.98
2022-12-29T16:22:16.125Z,1.70
2022-12-29T16:25:58.685Z,1.33
2022-12-29T16:29:40.880Z,1.08
2022-12-29T16:33:53.408Z,1.70
2022-12-29T16:37:37.157Z,3.97
2022-12-29T16:45:24.598Z,2.55
2022-12-29T16:49:08.174Z,1.83
2022-12-29T16:52:50.245Z,5.55
2022-12-29T16:56:34.256Z,9.70
2022-12-29T17:00:21.814Z,11.23
2022-12-29T17:04:07.636Z,14.68
2022-12-29T17:07:49.470Z,15.15
2022-12-29T17:11:58.491Z,4.97
2022-12-29T17:15:42.022Z,3.80
2022-12-29T17:19:35.975Z,4.25
2022-12-29T17:23:24.468Z,5.72
2022-12-29T17:27:08.256Z,5.50
2022-12-29T17:31:10.320Z,7.22
2022-12-29T17:34:52.068Z,7.20
2022-12-29T17:38:37.845Z,7.50
2022-12-29T17:42:19.955Z,9.20
2022-12-29T17:46:01.930Z,6.65
2022-12-29T17:50:09.483Z,5.10
2022-12-29T17:53:52.116Z,4.80
2022-12-29T17:57:33.855Z,5.43
2022-12-29T18:01:37.393Z,5.00
2022-12-29T18:05:22.567Z,6.22
2022-12-29T18:10:00.689Z,3.72
2022-12-29T18:13:46.660Z,4.20
2022-12-29T18:17:28.740Z,2.95
2022-12-29T18:21:24.343Z,4.20
2022-12-29T18:25:36.584Z,6.68
2022-12-29T18:29:19.385Z,5.28
2022-12-29T18:33:01.153Z,4.45
2022-12-29T18:36:43.560Z,5.18
2022-12-29T18:40:44.439Z,4.00
2022-12-29T18:44:27.305Z,4.53
2022-12-29T18:48:09.326Z,3.57
2022-12-29T18:51:51.051Z,4.18
2022-12-29T18:55:33.027Z,3.97
2022-12-29T18:59:15.895Z,4.22
2022-12-29T19:02:57.852Z,2.90
2022-12-29T19:06:39.815Z,3.85
2022-12-29T19:11:18.294Z,4.22
2022-12-29T19:15:02.170Z,4.30
2022-12-29T19:19:09.233Z,8.50
2022-12-29T19:22:51.492Z,4.20
2022-12-29T19:26:36.085Z,5.80
2022-12-29T19:30:19.604Z,6.22
2022-12-29T19:34:02.905Z,3.88
2022-12-29T19:37:44.633Z,4.60
2022-12-29T19:41:26.706Z,3.55
2022-12-29T19:45:08.912Z,3.72
2022-12-29T19:49:29.470Z,4.80
2022-12-29T19:53:11.715Z,3.65
2022-12-29T19:56:53.443Z,4.50
2022-12-29T20:00:40.142Z,3.85
2022-12-29T20:04:21.938Z,4.53
2022-12-29T20:08:03.681Z,3.75
2022-12-29T20:11:45.427Z,3.25
2022-12-29T20:15:27.159Z,2.92
2022-12-29T20:19:11.055Z,4.00
2022-12-29T20:22:52.783Z,2.55
2022-12-29T20:26:34.528Z,2.53
2022-12-29T20:30:36.464Z,2.90
2022-12-29T20:34:18.523Z,2.35
2022-12-29T20:38:00.293Z,2.72
2022-12-29T20:41:42.140Z,2.25
2022-12-29T20:45:24.006Z,2.17
2022-12-29T20:49:06.400Z,2.50
2022-12-29T20:52:48.098Z,2.60
2022-12-29T20:56:31.834Z,2.50
2022-12-29T21:00:20.569Z,2.10
2022-12-29T21:04:05.560Z,2.30
2022-12-29T21:07:47.252Z,2.85
2022-12-29T21:11:30.127Z,2.50
2022-12-29T21:15:14.309Z,2.53
2022-12-29T21:18:56.124Z,3.08
2022-12-29T21:22:37.854Z,2.25
2022-12-29T21:26:23.667Z,3.22
2022-12-29T21:30:08.424Z,3.03
2022-12-29T21:33:50.533Z,2.30
2022-12-29T21:37:32.233Z,4.05
2022-12-29T21:41:17.549Z,3.28
2022-12-29T21:45:20.917Z,3.15
2022-12-29T21:49:40.260Z,3.15
2022-12-29T21:53:21.956Z,2.95
2022-12-29T21:57:03.754Z,3.05
2022-12-29T22:01:04.081Z,2.33
2022-12-29T22:05:04.278Z,2.95
2022-12-29T22:09:05.755Z,2.35
2022-12-29T22:13:03.394Z,2.35
2022-12-29T22:16:45.228Z,3.00
2022-12-29T22:20:30.641Z,2.63
2022-12-29T22:24:12.332Z,2.70
2022-12-29T22:27:58.979Z,2.63
2022-12-29T22:31:41.707Z,2.88
2022-12-29T22:35:23.693Z,3.10
2022-12-29T22:39:05.560Z,2.53
2022-12-29T22:42:47.323Z,4.00
2022-12-29T22:46:29.045Z,3.40
2022-12-29T22:50:13.084Z,2.28
2022-12-29T22:53:54.775Z,2.80
2022-12-29T22:57:36.590Z,2.60
2022-12-29T23:01:19.298Z,3.60
2022-12-29T23:05:03.904Z,3.10
2022-12-29T23:09:08.221Z,3.08
2022-12-29T23:12:49.931Z,2.35
2022-12-29T23:16:31.706Z,2.40
2022-12-29T23:20:14.995Z,2.70
2022-12-29T23:23:56.748Z,2.03
2022-12-29T23:27:38.444Z,2.50
2022-12-29T23:31:23.704Z,2.80
2022-12-29T23:35:05.831Z,2.72
2022-12-29T23:38:49.709Z,2.38
2022-12-29T23:42:31.426Z,2.25
2022-12-29T23:46:14.985Z,3.17
2022-12-29T23:49:57.885Z,2.85
2022-12-29T23:53:41.214Z,3.97
2022-12-29T23:57:22.993Z,2.60
